»·PEaware :: AAL554 KPHX-KSFO

AAL554 :: KPHX-KSFO

FLIGHT INFORMATION

Flight Status: Arrived
Operator:
American Airlines
More flights by this operator :: More flights under this callsign
Pilot: Shawn G. (7208)
Aircraft: BOEING 767-300
(B763)
More flights by this aircraft type
Origin: KPHX Phoenix Sky Harbor Intl
United States
Destination: KSFO San Francisco Intl
United States
More flights between these airports :: More routes between these airports
Route: IZZZO6 HRRBR CURIV J212 DECAS BOILE AVE MAKRS SERFR SERFR2
File this flight plan on PilotEdge
Remarks:
Altitude:
(Current/Filed)
38,000ft
Speed:
(Current/Filed)
340kts
Departed: 07-Oct-17 07:17 PM
Arrived: 07-Oct-17 08:55 PM
Distance/Time
Traveled:
565nm/1:38
Distance/Time
To Go:
Arrived

Flight Plot

Page will automatically refresh every two minutes.

Flight plan parsing failed; only flown route is shown


Map Options




Map Legend


Flown Route
Filed Route
Departure Airport
Arrival Airport
Navaid (VOR, NDB)
Fix

Horizontal Profiles

Position Reports

Time Latitude Longitude Heading Altitude Ground
Speed
07-Oct-17 18:55 33.437851 -111.997460 97 1145ft 0kts
07-Oct-17 18:56 33.437851 -111.997460 97 1145ft 0kts
07-Oct-17 18:57 33.437851 -111.997460 97 1145ft 0kts
07-Oct-17 18:58 33.437851 -111.997460 97 1145ft 0kts
07-Oct-17 18:59 33.437851 -111.997460 97 1145ft 0kts
07-Oct-17 19:00 33.437851 -111.997460 97 1145ft 0kts
07-Oct-17 19:01 33.437851 -111.997460 97 1145ft 0kts
07-Oct-17 19:02 33.437851 -111.997460 97 1145ft 0kts
07-Oct-17 19:03 33.437851 -111.997460 97 1145ft 0kts
07-Oct-17 19:04 33.437851 -111.997460 97 1145ft 0kts
07-Oct-17 19:05 33.437851 -111.997460 97 1145ft 0kts
07-Oct-17 19:06 33.437851 -111.997460 97 1145ft 0kts
07-Oct-17 19:07 33.437851 -111.997460 97 1145ft 0kts
07-Oct-17 19:08 33.437851 -111.997460 97 1145ft 0kts
07-Oct-17 19:09 33.437851 -111.997460 97 1145ft 0kts
07-Oct-17 19:10 33.437851 -111.997460 97 1145ft 0kts
07-Oct-17 19:11 33.437851 -111.997460 97 1145ft 0kts
07-Oct-17 19:12 33.437851 -111.997461 97 1145ft 0kts
07-Oct-17 19:13 33.437801 -111.997991 37 1145ft 2kts
07-Oct-17 19:14 33.437227 -111.998056 0 1145ft 2kts
07-Oct-17 19:15 33.437120 -111.998056 359 1145ft 0kts
07-Oct-17 19:16 33.437121 -111.998056 359 1145ft 0kts
07-Oct-17 19:17 33.437945 -111.998050 359 1145ft 3kts
07-Oct-17 19:18 33.439717 -111.997019 88 1145ft 6kts
07-Oct-17 19:20 33.439724 -111.991334 52 1145ft 2kts
07-Oct-17 19:20 33.440820 -111.991645 296 1145ft 4kts
07-Oct-17 19:21 33.440838 -112.002918 270 1146ft 135kts
07-Oct-17 19:23 33.441979 -112.078464 270 4465ft 240kts
07-Oct-17 19:24 33.443277 -112.165340 270 8139ft 274kts
07-Oct-17 19:24 33.444568 -112.242528 271 10994ft 303kts
07-Oct-17 19:26 33.446730 -112.372700 271 14743ft 351kts
07-Oct-17 19:26 33.448268 -112.471416 271 17660ft 366kts
07-Oct-17 19:27 33.450069 -112.594824 272 21068ft 376kts
07-Oct-17 19:28 33.451783 -112.721266 272 23893ft 391kts
07-Oct-17 19:29 33.462948 -112.852314 283 26478ft 404kts
07-Oct-17 19:30 33.487549 -112.985652 283 28862ft 418kts
07-Oct-17 19:31 33.513069 -113.123215 284 30986ft 430kts
07-Oct-17 19:32 33.539092 -113.264225 284 33140ft 435kts
07-Oct-17 19:33 33.564705 -113.403939 284 35555ft 424kts
07-Oct-17 19:34 33.589659 -113.540155 284 37288ft 417kts
07-Oct-17 19:35 33.614905 -113.675622 283 37769ft 416kts
07-Oct-17 19:36 33.639903 -113.810616 283 37779ft 416kts
07-Oct-17 19:37 33.664873 -113.946238 283 37777ft 415kts
07-Oct-17 19:38 33.689576 -114.081184 283 37779ft 416kts
07-Oct-17 19:39 33.714116 -114.216139 283 37774ft 415kts
07-Oct-17 19:40 33.738626 -114.351821 283 37774ft 415kts
07-Oct-17 19:41 33.762928 -114.487247 283 37772ft 415kts
07-Oct-17 19:42 33.777592 -114.624308 276 37774ft 417kts
07-Oct-17 19:43 33.785394 -114.755962 275 37779ft 417kts
07-Oct-17 19:44 33.793293 -114.894589 275 37778ft 416kts
07-Oct-17 19:45 33.801015 -115.033256 275 37779ft 417kts
07-Oct-17 19:46 33.808577 -115.171866 275 37774ft 416kts
07-Oct-17 19:47 33.815971 -115.310231 275 37912ft 417kts
07-Oct-17 19:48 33.823915 -115.448926 280 37901ft 414kts
07-Oct-17 19:49 33.854519 -115.582422 287 37908ft 414kts
07-Oct-17 19:50 33.885895 -115.711805 286 37915ft 414kts
07-Oct-17 19:51 33.918003 -115.844440 286 37912ft 413kts
07-Oct-17 19:52 33.949923 -115.976964 286 37914ft 414kts
07-Oct-17 19:53 33.981720 -116.109650 286 37909ft 413kts
07-Oct-17 19:54 34.012979 -116.240775 286 37908ft 413kts
07-Oct-17 19:55 34.044513 -116.373750 286 37907ft 413kts
07-Oct-17 19:56 34.075871 -116.506689 286 37905ft 413kts
07-Oct-17 19:57 34.107062 -116.639610 286 37946ft 412kts
07-Oct-17 19:58 34.137632 -116.770582 286 38159ft 413kts
07-Oct-17 19:59 34.168556 -116.903780 286 38158ft 412kts
07-Oct-17 20:00 34.199257 -117.036740 286 38159ft 412kts
07-Oct-17 20:01 34.229828 -117.169838 286 38155ft 412kts
07-Oct-17 20:02 34.260200 -117.302780 285 37974ft 412kts
07-Oct-17 20:03 34.290537 -117.436335 286 37939ft 412kts
07-Oct-17 20:04 34.320659 -117.569654 285 37935ft 412kts
07-Oct-17 20:05 34.350133 -117.700853 285 37918ft 412kts
07-Oct-17 20:06 34.379979 -117.834413 285 37916ft 412kts
07-Oct-17 20:07 34.409543 -117.967442 285 37913ft 412kts
07-Oct-17 20:08 34.462911 -118.088017 305 37921ft 414kts
07-Oct-17 20:09 34.533471 -118.198407 306 37911ft 414kts
07-Oct-17 20:10 34.603685 -118.308097 306 37909ft 414kts
07-Oct-17 20:11 34.674302 -118.418701 306 37881ft 414kts
07-Oct-17 20:12 34.744510 -118.529007 306 37880ft 414kts
07-Oct-17 20:13 34.809571 -118.631535 306 37913ft 414kts
07-Oct-17 20:14 34.876118 -118.736703 305 38022ft 415kts
07-Oct-17 20:15 34.946101 -118.847653 305 38048ft 414kts
07-Oct-17 20:16 35.016176 -118.959087 306 38033ft 415kts
07-Oct-17 20:17 35.086170 -119.070757 306 37876ft 416kts
07-Oct-17 20:18 35.155920 -119.182387 306 37861ft 415kts
07-Oct-17 20:19 35.225668 -119.294366 306 37857ft 415kts
07-Oct-17 20:20 35.295555 -119.406943 306 37857ft 416kts
07-Oct-17 20:21 35.365360 -119.519734 306 37855ft 416kts
07-Oct-17 20:22 35.434851 -119.632386 306 37854ft 416kts
07-Oct-17 20:23 35.504340 -119.745405 305 37861ft 416kts
07-Oct-17 20:24 35.573692 -119.858564 305 37860ft 416kts
07-Oct-17 20:25 35.638992 -119.976797 293 37860ft 426kts
07-Oct-17 20:26 35.660511 -120.119725 279 37858ft 427kts
07-Oct-17 20:27 35.675002 -120.264044 279 37884ft 427kts
07-Oct-17 20:28 35.706050 -120.402937 295 37890ft 423kts
07-Oct-17 20:29 35.755487 -120.533892 296 37879ft 422kts
07-Oct-17 20:30 35.805155 -120.664496 295 37883ft 423kts
07-Oct-17 20:31 35.852483 -120.789318 296 37400ft 387kts
07-Oct-17 20:32 35.897993 -120.909777 297 35197ft 392kts
07-Oct-17 20:33 35.944376 -121.032960 297 32992ft 402kts
07-Oct-17 20:34 35.991556 -121.158790 297 31051ft 407kts
07-Oct-17 20:35 36.038903 -121.285570 297 29167ft 404kts
07-Oct-17 20:36 36.103966 -121.390051 325 27371ft 390kts
07-Oct-17 20:37 36.192576 -121.461266 326 25663ft 381kts
07-Oct-17 20:38 36.281225 -121.530832 326 23956ft 373kts
07-Oct-17 20:39 36.367761 -121.598740 326 22311ft 365kts
07-Oct-17 20:40 36.451975 -121.664977 325 20737ft 356kts
07-Oct-17 20:41 36.534799 -121.730310 325 19095ft 350kts
07-Oct-17 20:42 36.615952 -121.794515 325 17464ft 344kts
07-Oct-17 20:43 36.696170 -121.858144 325 15781ft 341kts
07-Oct-17 20:44 36.781284 -121.904698 343 14381ft 333kts
07-Oct-17 20:45 36.871805 -121.930501 344 12710ft 334kts
07-Oct-17 20:46 36.961285 -121.956182 340 10984ft 321kts
07-Oct-17 20:47 37.044147 -121.988964 340 10262ft 296kts
07-Oct-17 20:48 37.115823 -122.017004 339 9767ft 264kts
07-Oct-17 20:49 37.185859 -122.044527 342 8630ft 270kts
07-Oct-17 20:50 37.256551 -122.072229 343 7819ft 263kts
07-Oct-17 20:51 37.326031 -122.099507 343 6943ft 260kts
07-Oct-17 20:52 37.390891 -122.124977 343 4512ft 240kts
07-Oct-17 20:53 37.454820 -122.150095 342 4021ft 243kts
07-Oct-17 20:54 37.519350 -122.169169 342 3179ft 231kts
07-Oct-17 20:55 37.557069 -122.228858 297 2390ft 216kts
07-Oct-17 20:56 37.580793 -122.284775 297 1426ft 161kts
07-Oct-17 20:57 37.600396 -122.331066 297 486ft 140kts
07-Oct-17 20:58 37.616834 -122.370435 294 39ft 115kts
07-Oct-17 20:59 37.622113 -122.386094 207 24ft 4kts
07-Oct-17 21:00 37.621229 -122.385827 118 24ft 13kts
07-Oct-17 21:01 37.619584 -122.382245 164 24ft 9kts
07-Oct-17 21:02 37.618420 -122.382099 138 24ft 0kts
07-Oct-17 21:03 37.618377 -122.382050 139 24ft 0kts
07-Oct-17 21:04 37.618377 -122.382050 139 24ft 0kts

Navigation Log

Ident Type
Flight plan parsing failed, navigation log unavailable